This is the latest recevied weather packets stored in our database for station/object W4TBD-13. If no packets are shown the sender has not sent any weather packets the latest 10 day(s).
| Time | Temp. | Humidity | Pressure | Rain* | Wind** | Luminosity | Snow |
|---|---|---|---|---|---|---|---|
| 1777516204 | 17.22° C | 96% | 998.3 hPa | 0 mm | - | 0 W/m² | - |
| 1777513205 | 17.78° C | 95% | 998.3 hPa | 0 mm | - | 0 W/m² | - |
| 1777512905 | 17.78° C | 94% | 998.4 hPa | 0 mm | - | 0 W/m² | - |
| 1777506605 | 18.33° C | 89% | 998 hPa | 0 mm | - | 0 W/m² | - |
| 1777505104 | 18.89° C | 89% | 998 hPa | 0 mm | - | 0 W/m² | - |
| 1777502405 | 18.89° C | 86% | 998.2 hPa | 0 mm | - | 0 W/m² | - |
| 1777500005 | 19.44° C | 84% | 998.3 hPa | 0 mm | - | 0 W/m² | - |
| 1777493705 | 20° C | 75% | 999.4 hPa | 0 mm | - | 0 W/m² | - |
| 1777493106 | 20° C | 74% | 999.5 hPa | 0 mm | - | 0 W/m² | - |
| 1777492805 | 20° C | 75% | 999.8 hPa | 0 mm | - | 0 W/m² | - |
| 1777491005 | 20° C | 71% | 1000 hPa | 0 mm | - | 0 W/m² | - |
| 1777490405 | 20° C | 71% | 1000.3 hPa | 0 mm | - | 0 W/m² | - |
| 1777489805 | 20° C | 72% | 1000.6 hPa | 0 mm | - | 0 W/m² | - |
| 1777487704 | 20° C | 73% | 1001.3 hPa | 0 mm | - | 0 W/m² | - |
| 1777487104 | 20° C | 73% | 1001.3 hPa | 0 mm | - | 0 W/m² | - |
| 1777485905 | 19.44° C | 75% | 1001.6 hPa | 0 mm | - | 0 W/m² | - |
| 1777484705 | 18.89° C | 76% | 1002.1 hPa | 0 mm | - | 117 W/m² | - |
| 1777483204 | 18.89° C | 77% | 1002.4 hPa | 0 mm | - | 101 W/m² | - |
| 1777482005 | 18.33° C | 79% | 1002.5 hPa | 0 mm | - | 111 W/m² | - |
| 1777481405 | 18.33° C | 79% | 1002.6 hPa | 0 mm | - | 84 W/m² | - |
| 1777481104 | 18.33° C | 79% | 1002.6 hPa | 0 mm | - | 98 W/m² | - |
| 1777479605 | 17.78° C | 80% | 1002.8 hPa | 0 mm | - | 69 W/m² | - |
| 1777478704 | 17.78° C | 80% | 1003.1 hPa | 0 mm | - | 92 W/m² | - |
| 1777478404 | 17.78° C | 80% | 1003.3 hPa | 0 mm | - | 107 W/m² | - |
| 1777476905 | 17.22° C | 81% | 1003.5 hPa | 0 mm | - | 85 W/m² | - |
* Rain latest hour (hover to see other rain measurements)
** Current wind speed in m/s (hover to see current wind gust speed)